Time;durP1;ratioP1;P1;durP2;ratioP2;P2;SDS_P1;SDS_P2;PMS_P1;PMS_P2;Temp;Humidity;BMP_temperature;BMP_pressure;BME280_temperature;BME280_humidity;BME280_pressure;Samples;Min_cycle;Max_cycle;Signal;HPM_P1;HPM_P2
2021/07/10 00:01:43;;;;;;;;;;;16.90;99.90;;;-145.59;100.00;63944.34;5015833;28;19925;-74
2021/07/10 00:04:09;;;;;;;;;;;16.80;99.90;;;-145.59;100.00;63944.34;5032657;28;19921;-72
2021/07/10 00:06:35;;;;;;;;;;;16.70;99.90;;;-145.59;100.00;63944.34;5033850;28;19921;-73
2021/07/10 00:09:00;;;;;;;;;;;16.70;99.90;;;-145.59;100.00;63944.34;5032447;28;19924;-73
2021/07/10 00:11:26;;;;;;;;;;;16.50;99.90;;;-145.59;100.00;63944.34;5032504;28;20012;-74
2021/07/10 00:13:52;;;;;;;;;;;16.30;99.90;;;-145.59;100.00;63944.34;5015976;28;19917;-72
2021/07/10 00:16:18;;;;;;;;;;;16.20;99.90;;;-145.59;100.00;63944.34;5015907;28;19921;-73
2021/07/10 00:18:43;;;;;;;;;;;16.20;99.90;;;-145.59;100.00;63944.34;5032503;28;19966;-71
2021/07/10 00:21:09;;;;;;;;;;;16.20;99.90;;;-145.59;100.00;63944.34;5020069;28;20442;-73
2021/07/10 00:23:35;;;;;;;;;;;16.20;99.90;;;-145.59;100.00;63944.34;5037508;28;19932;-75
2021/07/10 00:26:01;;;;;;;;;;;16.20;99.90;;;-145.59;100.00;63944.34;5037808;28;19925;-71
2021/07/10 00:28:26;;;;;;;;;;;16.20;99.90;;;-145.59;100.00;63944.34;5038009;28;20003;-73
2021/07/10 00:30:52;;;;;;;;;;;16.20;99.90;;;-145.59;100.00;63944.34;5036067;28;19922;-72
2021/07/10 00:33:18;;;;;;;;;;;16.20;99.90;;;-145.59;100.00;63944.34;5036379;28;20402;-73
2021/07/10 00:35:44;;;;;;;;;;;16.20;99.90;;;-145.59;100.00;63944.34;5019495;28;19917;-73
2021/07/10 00:38:09;;;;;;;;;;;16.10;99.90;;;-145.59;100.00;63944.34;5037024;28;20395;-73
2021/07/10 00:40:35;;;;;;;;;;;16.10;99.90;;;-145.59;100.00;63944.34;5036376;28;19921;-75
2021/07/10 00:43:02;;;;;;;;;;;16.10;99.90;;;-145.59;100.00;63944.34;5002945;28;20008;-75
2021/07/10 00:45:28;;;;;;;;;;;16.10;99.90;;;-145.59;100.00;63944.34;5019718;28;20295;-70
2021/07/10 00:47:53;;;;;;;;;;;16.00;99.90;;;-145.59;100.00;63944.34;5003282;28;19921;-71
2021/07/10 00:50:22;;;;;;;;;;;16.00;99.90;;;-145.59;100.00;63944.34;5036872;28;19922;-77
2021/07/10 00:52:48;;;;;;;;;;;16.00;99.90;;;-145.59;100.00;63944.34;5036560;28;19924;-70
2021/07/10 00:55:14;;;;;;;;;;;16.00;99.90;;;-145.59;100.00;63944.34;5020147;28;19999;-71
2021/07/10 00:57:42;;;;;;;;;;;16.00;99.90;;;-145.59;100.00;63944.34;5040873;28;20007;-72
2021/07/10 01:00:10;;;;;;;;;;;16.00;99.90;;;-145.59;100.00;63944.34;5023809;28;19932;-69
2021/07/10 01:02:39;;;;;;;;;;;16.00;99.90;;;-145.59;100.00;63944.34;5039680;28;19924;-70
2021/07/10 01:05:07;;;;;;;;;;;16.00;99.90;;;-145.59;100.00;63944.34;5024122;28;19974;-69
2021/07/10 01:07:33;;;;;;;;;;;16.00;99.90;;;-145.59;100.00;63944.34;5040037;28;19969;-69
2021/07/10 01:09:59;;;;;;;;;;;16.00;99.90;;;-145.59;100.00;63944.34;5022414;28;20308;-71
2021/07/10 01:12:26;;;;;;;;;;;16.00;99.90;;;-145.59;100.00;63944.34;5039049;28;19921;-78
2021/07/10 01:14:52;;;;;;;;;;;16.00;99.90;;;-145.59;100.00;63944.34;5022270;28;19917;-69
2021/07/10 01:17:18;;;;;;;;;;;16.00;99.90;;;-145.59;100.00;63944.34;5022111;28;19923;-69
2021/07/10 01:19:55;;;;;;;;;;;15.90;99.90;;;-145.59;100.00;63944.34;5038656;28;19986;-71
2021/07/10 01:22:21;;;;;;;;;;;16.00;99.90;;;-145.59;100.00;63944.34;5038754;28;20389;-73
2021/07/10 01:24:47;;;;;;;;;;;15.90;99.90;;;-145.59;100.00;63944.34;5022239;28;19920;-74
2021/07/10 01:27:12;;;;;;;;;;;15.80;99.90;;;-145.59;100.00;63944.34;5022125;28;19931;-69
2021/07/10 01:29:38;;;;;;;;;;;15.80;99.90;;;-145.59;100.00;63944.34;5021989;28;20324;-70
2021/07/10 01:32:05;;;;;;;;;;;15.80;99.90;;;-145.59;100.00;63944.34;5004319;28;19921;-73
2021/07/10 01:34:34;;;;;;;;;;;15.70;99.90;;;-145.59;100.00;63944.34;5038376;28;20102;-70
2021/07/10 01:36:59;;;;;;;;;;;15.70;99.90;;;-145.59;100.00;63944.34;5039104;28;19978;-71
2021/07/10 01:39:25;;;;;;;;;;;15.60;99.90;;;-145.59;100.00;63944.34;5038202;28;19921;-69
2021/07/10 01:41:53;;;;;;;;;;;15.60;99.90;;;-145.59;100.00;63944.34;5055973;28;19939;-71
2021/07/10 01:44:21;;;;;;;;;;;15.50;99.90;;;-145.59;100.00;63944.34;5037868;28;19965;-70
2021/07/10 01:46:46;;;;;;;;;;;15.50;99.90;;;-145.59;100.00;63944.34;5021844;28;19920;-73
2021/07/10 01:49:12;;;;;;;;;;;15.60;99.90;;;-145.59;100.00;63944.34;5021444;28;19924;-70
2021/07/10 01:51:38;;;;;;;;;;;15.60;99.90;;;-145.59;100.00;63944.34;5037915;28;19927;-69
2021/07/10 01:54:03;;;;;;;;;;;15.70;99.90;;;-145.59;100.00;63944.34;5037664;28;19921;-69
2021/07/10 01:56:29;;;;;;;;;;;15.70;99.90;;;-145.59;100.00;63944.34;5037983;28;19931;-69
2021/07/10 01:58:55;;;;;;;;;;;15.70;99.90;;;-145.59;100.00;63944.34;5037569;28;19928;-70
2021/07/10 02:01:22;;;;;;;;;;;15.80;99.90;;;-145.59;100.00;63944.34;5055761;28;19931;-70
2021/07/10 02:03:48;;;;;;;;;;;15.80;99.90;;;-145.59;100.00;63944.34;5037699;28;20374;-71
2021/07/10 02:06:14;;;;;;;;;;;15.70;99.90;;;-145.59;100.00;63944.34;5021013;28;19928;-73
2021/07/10 02:08:39;;;;;;;;;;;15.60;99.90;;;-145.59;100.00;63944.34;5055517;28;19921;-73
2021/07/10 02:11:05;;;;;;;;;;;15.70;99.90;;;-145.59;100.00;63944.34;5055347;28;20335;-71
2021/07/10 02:13:31;;;;;;;;;;;15.70;99.90;;;-145.59;100.00;63944.34;5037236;28;19946;-69
2021/07/10 02:15:57;;;;;;;;;;;15.60;99.90;;;-145.59;100.00;63944.34;5037273;28;19925;-73
2021/07/10 02:18:22;;;;;;;;;;;15.60;99.90;;;-145.59;100.00;63944.34;5020673;28;20297;-72
2021/07/10 02:20:48;;;;;;;;;;;15.60;99.90;;;-145.59;100.00;63944.34;5020703;28;20342;-70
2021/07/10 02:23:14;;;;;;;;;;;15.60;99.90;;;-145.59;100.00;63944.34;5037453;28;20347;-71
2021/07/10 02:25:39;;;;;;;;;;;15.60;99.90;;;-145.59;100.00;63944.34;5037326;28;20002;-71
2021/07/10 02:28:05;;;;;;;;;;;15.50;99.90;;;-145.59;100.00;63944.34;5037445;28;19921;-73
2021/07/10 02:30:34;;;;;;;;;;;15.50;99.90;;;-145.59;100.00;63944.34;5020469;28;19921;-71
2021/07/10 02:33:01;;;;;;;;;;;15.50;99.90;;;-145.59;100.00;63944.34;5020841;28;20278;-73
2021/07/10 02:35:28;;;;;;;;;;;15.50;99.90;;;-145.59;100.00;63944.34;5036965;28;19979;-74
2021/07/10 02:37:55;;;;;;;;;;;15.40;99.90;;;-145.59;100.00;63944.34;5004276;28;20271;-73
2021/07/10 02:40:21;;;;;;;;;;;15.30;99.90;;;-145.59;100.00;63944.34;5037202;28;20286;-73
2021/07/10 02:42:48;;;;;;;;;;;15.30;99.90;;;-145.59;100.00;63944.34;5020076;28;19925;-73
2021/07/10 02:45:15;;;;;;;;;;;15.30;99.90;;;-145.59;100.00;63944.34;5036622;28;19921;-72
2021/07/10 02:47:41;;;;;;;;;;;15.30;99.90;;;-145.59;100.00;63944.34;5036845;28;19917;-71
2021/07/10 02:50:10;;;;;;;;;;;15.30;99.90;;;-145.59;100.00;63944.34;5036773;28;19917;-73
2021/07/10 02:52:36;;;;;;;;;;;15.30;99.90;;;-145.59;100.00;63944.34;5020408;28;19921;-74
2021/07/10 02:55:03;;;;;;;;;;;15.30;99.90;;;-145.59;100.00;63944.34;5020380;28;19932;-75
2021/07/10 02:57:29;;;;;;;;;;;15.30;99.90;;;-145.59;100.00;63944.34;5020598;28;19917;-75
2021/07/10 02:59:54;;;;;;;;;;;15.30;99.90;;;-145.59;100.00;63944.34;5037196;28;20343;-73
2021/07/10 03:02:20;;;;;;;;;;;15.20;99.90;;;-145.59;100.00;63944.34;5039850;28;19921;-74
2021/07/10 03:04:46;;;;;;;;;;;15.20;99.90;;;-145.59;100.00;63944.34;5043056;28;20031;-75
2021/07/10 03:07:11;;;;;;;;;;;15.20;99.90;;;-145.59;100.00;63944.34;5059237;28;19924;-76
2021/07/10 03:09:37;;;;;;;;;;;15.20;99.90;;;-145.59;100.00;63944.34;5041833;28;19916;-77
2021/07/10 03:12:05;;;;;;;;;;;15.20;99.90;;;-145.59;100.00;63944.34;5041443;28;20371;-73
2021/07/10 03:14:31;;;;;;;;;;;15.20;99.90;;;-145.59;100.00;63944.34;5022875;28;19943;-75
2021/07/10 03:16:56;;;;;;;;;;;15.30;99.90;;;-145.59;100.00;63944.34;5021709;28;19931;-76
2021/07/10 03:19:22;;;;;;;;;;;15.30;99.90;;;-145.59;100.00;63944.34;5020728;28;19921;-73
2021/07/10 03:21:48;;;;;;;;;;;15.50;99.90;;;-145.59;100.00;63944.34;5038021;28;19947;-73
2021/07/10 03:24:14;;;;;;;;;;;15.50;99.90;;;-145.59;100.00;63944.34;5037875;28;20290;-71
2021/07/10 03:26:40;;;;;;;;;;;15.70;99.90;;;-145.59;100.00;63944.34;5054879;28;20377;-73
2021/07/10 03:29:05;;;;;;;;;;;15.70;99.90;;;-145.59;100.00;63944.34;5036390;28;19917;-73
2021/07/10 03:31:31;;;;;;;;;;;15.80;99.90;;;-145.59;100.00;63944.34;5054033;28;19927;-73
2021/07/10 03:33:57;;;;;;;;;;;15.90;99.90;;;-145.59;100.00;63944.34;5019874;28;19966;-71
2021/07/10 03:36:26;;;;;;;;;;;16.00;99.90;;;-145.59;100.00;63944.34;5036256;28;19917;-72
2021/07/10 03:38:53;;;;;;;;;;;16.10;99.90;;;-145.59;100.00;63944.34;5036303;28;20011;-72
2021/07/10 03:41:18;;;;;;;;;;;16.20;99.90;;;-145.59;100.00;63944.34;5036140;28;19916;-72
2021/07/10 03:43:45;;;;;;;;;;;16.20;99.90;;;-145.59;100.00;63944.34;5035653;28;19928;-75
2021/07/10 03:46:11;;;;;;;;;;;16.20;99.90;;;-145.59;100.00;63944.34;5035961;28;19921;-73
2021/07/10 03:48:37;;;;;;;;;;;16.30;99.90;;;-145.59;100.00;63944.34;5019174;28;20302;-70
2021/07/10 03:51:04;;;;;;;;;;;16.40;99.90;;;-145.59;100.00;63944.34;5035910;28;19923;-70
2021/07/10 03:53:30;;;;;;;;;;;16.40;99.90;;;-145.59;100.00;63944.34;5035404;28;19925;-71
2021/07/10 03:55:55;;;;;;;;;;;16.50;99.90;;;-145.59;100.00;63944.34;5036048;28;19921;-71
2021/07/10 03:58:21;;;;;;;;;;;16.60;99.90;;;-145.59;100.00;63944.34;5035607;28;19943;-71
2021/07/10 04:00:47;;;;;;;;;;;16.60;99.90;;;-145.59;100.00;63944.34;5035875;28;19924;-71
2021/07/10 04:03:13;;;;;;;;;;;16.60;99.90;;;-145.59;100.00;63944.34;5002970;28;19921;-70
2021/07/10 04:05:38;;;;;;;;;;;16.60;99.90;;;-145.59;100.00;63944.34;5035559;28;19921;-70
2021/07/10 04:08:04;;;;;;;;;;;16.70;99.90;;;-145.59;100.00;63944.34;5036044;28;19943;-71
2021/07/10 04:10:30;;;;;;;;;;;16.70;99.90;;;-145.59;100.00;63944.34;5019352;28;19952;-71
2021/07/10 04:12:56;;;;;;;;;;;16.80;99.90;;;-145.59;100.00;63944.34;5035733;28;20286;-71
2021/07/10 04:15:21;;;;;;;;;;;16.90;99.90;;;-145.59;100.00;63944.34;5053463;28;19921;-68
2021/07/10 04:17:47;;;;;;;;;;;16.90;99.90;;;-145.59;100.00;63944.34;5019134;28;20012;-72
2021/07/10 04:20:15;;;;;;;;;;;16.90;99.90;;;-145.59;100.00;63944.34;5035438;28;19917;-69
2021/07/10 04:22:41;;;;;;;;;;;17.00;99.90;;;-145.59;100.00;63944.34;5053192;28;20414;-75
2021/07/10 04:25:09;;;;;;;;;;;17.00;99.90;;;-145.59;100.00;63944.34;5035640;28;19933;-75
2021/07/10 04:27:38;;;;;;;;;;;16.90;99.90;;;-145.59;100.00;63944.34;5019023;28;20256;-76
2021/07/10 04:30:05;;;;;;;;;;;17.00;99.90;;;-145.59;100.00;63944.34;5019019;28;20393;-76
2021/07/10 04:32:31;;;;;;;;;;;17.00;99.90;;;-145.59;100.00;63944.34;5018870;28;20363;-75
2021/07/10 04:34:57;;;;;;;;;;;17.10;99.90;;;-145.59;100.00;63944.34;5035272;28;19978;-74
2021/07/10 04:37:23;;;;;;;;;;;17.10;99.90;;;-145.59;100.00;63944.34;5035291;28;19916;-76
2021/07/10 04:39:49;;;;;;;;;;;17.10;99.90;;;-145.59;100.00;63944.34;5035196;28;20286;-74
2021/07/10 04:42:14;;;;;;;;;;;17.10;99.90;;;-145.59;100.00;63944.34;5035188;28;19921;-77
2021/07/10 04:44:40;;;;;;;;;;;17.20;99.90;;;-145.59;100.00;63944.34;5018703;28;20344;-77
2021/07/10 04:47:06;;;;;;;;;;;17.20;99.90;;;-145.59;100.00;63944.34;5002383;28;19925;-76
2021/07/10 04:49:32;;;;;;;;;;;17.30;99.90;;;-145.59;100.00;63944.34;5018827;28;19913;-75
2021/07/10 04:51:58;;;;;;;;;;;17.40;99.90;;;-145.59;100.00;63944.34;5002844;28;20363;-78
2021/07/10 04:54:23;;;;;;;;;;;17.50;99.90;;;-145.59;100.00;63944.34;5018826;28;20390;-76
2021/07/10 04:56:49;;;;;;;;;;;17.60;99.90;;;-145.59;100.00;63944.34;5035051;28;19917;-75
2021/07/10 04:59:15;;;;;;;;;;;17.70;99.90;;;-145.59;100.00;63944.34;5018416;28;19925;-75
2021/07/10 05:01:40;;;;;;;;;;;17.80;99.90;;;-145.59;100.00;63944.34;5018581;28;19966;-76
2021/07/10 05:04:06;;;;;;;;;;;17.80;99.90;;;-145.59;100.00;63944.34;5035069;28;20375;-76
2021/07/10 05:06:32;;;;;;;;;;;17.90;99.90;;;-145.59;100.00;63944.34;5021425;28;19921;-76
2021/07/10 05:08:57;;;;;;;;;;;17.90;99.90;;;-145.59;100.00;63944.34;5022162;28;19962;-76
2021/07/10 05:11:23;;;;;;;;;;;18.00;99.90;;;-145.59;100.00;63944.34;5022167;28;19925;-70
2021/07/10 05:13:49;;;;;;;;;;;18.10;99.90;;;-145.59;100.00;63944.34;5038466;28;19917;-69
2021/07/10 05:16:14;;;;;;;;;;;18.20;99.90;;;-145.59;100.00;63944.34;5038640;28;19974;-72
2021/07/10 05:18:40;;;;;;;;;;;18.30;99.90;;;-145.59;100.00;63944.34;5005524;28;20016;-71
2021/07/10 05:21:06;;;;;;;;;;;18.40;99.90;;;-145.59;100.00;63944.34;5056184;28;19974;-71
2021/07/10 05:23:32;;;;;;;;;;;18.30;99.90;;;-145.59;100.00;63944.34;5056350;28;19928;-71
2021/07/10 05:25:57;;;;;;;;;;;18.40;99.90;;;-145.59;100.00;63944.34;5038623;28;20367;-73
2021/07/10 05:28:23;;;;;;;;;;;18.50;99.90;;;-145.59;100.00;63944.34;5038584;28;19921;-70
2021/07/10 05:30:50;;;;;;;;;;;18.60;99.90;;;-145.59;100.00;63944.34;5056189;28;20359;-72
2021/07/10 05:33:17;;;;;;;;;;;18.70;99.90;;;-145.59;100.00;63944.34;5038604;28;19956;-74
2021/07/10 05:35:46;;;;;;;;;;;18.90;99.90;;;-145.59;100.00;63944.34;5022219;28;19979;-72
2021/07/10 05:38:13;;;;;;;;;;;19.10;99.90;;;-145.59;100.00;63944.34;5006310;28;19928;-70
2021/07/10 05:40:39;;;;;;;;;;;19.30;99.90;;;-145.59;100.00;63944.34;5021718;28;19921;-71
2021/07/10 05:43:05;;;;;;;;;;;19.40;99.90;;;-145.59;100.00;63944.34;5021714;28;19966;-71
2021/07/10 05:45:30;;;;;;;;;;;19.50;99.90;;;-145.59;100.00;63944.34;5038030;28;19917;-71
2021/07/10 05:47:56;;;;;;;;;;;19.60;99.90;;;-145.59;100.00;63944.34;5038160;28;20023;-77
2021/07/10 05:50:22;;;;;;;;;;;19.70;99.90;;;-145.59;100.00;63944.34;5037924;28;19927;-77
2021/07/10 05:52:47;;;;;;;;;;;19.90;99.90;;;-145.59;100.00;63944.34;5037970;28;20279;-75
2021/07/10 05:55:14;;;;;;;;;;;20.00;99.90;;;-145.59;100.00;63944.34;5021249;28;19920;-78
2021/07/10 05:57:39;;;;;;;;;;;20.10;99.90;;;-145.59;100.00;63944.34;5037961;28;20012;-77
2021/07/10 06:00:07;;;;;;;;;;;20.10;99.90;;;-145.59;100.00;63944.34;5037824;28;20303;-77
2021/07/10 06:02:32;;;;;;;;;;;20.20;99.90;;;-145.59;100.00;63944.34;5037956;28;20329;-77
2021/07/10 06:04:58;;;;;;;;;;;20.30;99.90;;;-145.59;100.00;63944.34;5055573;28;19917;-75
2021/07/10 06:07:24;;;;;;;;;;;20.40;99.90;;;-145.59;100.00;63944.34;5055373;28;19967;-77
2021/07/10 06:09:49;;;;;;;;;;;20.50;99.90;;;-145.59;100.00;63944.34;5055561;28;19923;-75
2021/07/10 06:12:15;;;;;;;;;;;20.80;99.90;;;-145.59;100.00;63944.34;5037537;28;20375;-76
2021/07/10 06:14:41;;;;;;;;;;;21.00;99.90;;;-145.59;100.00;63944.34;5038534;28;20015;-76
2021/07/10 06:17:07;;;;;;;;;;;21.20;99.90;;;-145.59;100.00;63944.34;5037759;28;20302;-71
2021/07/10 06:19:32;;;;;;;;;;;21.50;99.90;;;-145.59;100.00;63944.34;5056430;28;20013;-71
2021/07/10 06:21:59;;;;;;;;;;;21.80;99.90;;;-145.59;100.00;63944.34;5037602;28;19958;-71
2021/07/10 06:24:25;;;;;;;;;;;22.00;99.90;;;-145.59;100.00;63944.34;5021493;28;19925;-69
2021/07/10 06:26:51;;;;;;;;;;;22.10;99.90;;;-145.59;100.00;63944.34;5037925;28;19921;-70
2021/07/10 06:29:17;;;;;;;;;;;22.20;99.90;;;-145.59;100.00;63944.34;5037711;28;19917;-72
2021/07/10 06:31:43;;;;;;;;;;;22.30;99.90;;;-145.59;100.00;63944.34;5021528;28;20287;-72
2021/07/10 06:34:09;;;;;;;;;;;22.70;99.70;;;-145.59;100.00;63944.34;5021578;28;19917;-70
2021/07/10 06:36:37;;;;;;;;;;;23.00;98.90;;;-145.59;100.00;63944.34;5038324;28;19929;-70
2021/07/10 06:39:04;;;;;;;;;;;23.20;98.30;;;-145.59;100.00;63944.34;5040491;28;20351;-72
2021/07/10 06:41:30;;;;;;;;;;;23.30;98.20;;;-145.59;100.00;63944.34;5038593;28;19917;-71
2021/07/10 06:43:55;;;;;;;;;;;23.40;97.90;;;-145.59;100.00;63944.34;5021213;28;19927;-75
2021/07/10 06:46:21;;;;;;;;;;;23.50;97.90;;;-145.59;100.00;63944.34;5037577;28;19920;-71
2021/07/10 06:48:47;;;;;;;;;;;23.60;97.20;;;-145.59;100.00;63944.34;5021239;28;19916;-75
2021/07/10 06:51:13;;;;;;;;;;;23.80;97.30;;;-145.59;100.00;63944.34;5038530;28;19921;-71
2021/07/10 06:53:39;;;;;;;;;;;24.00;97.00;;;-145.59;100.00;63944.34;5023845;28;19925;-72
2021/07/10 06:56:05;;;;;;;;;;;24.30;96.70;;;-145.59;100.00;63944.34;5022264;28;20003;-70
2021/07/10 06:58:30;;;;;;;;;;;24.50;96.20;;;-145.59;100.00;63944.34;5022426;28;19975;-69
2021/07/10 07:00:56;;;;;;;;;;;24.70;95.70;;;-145.59;100.00;63944.34;5056021;28;19924;-79
2021/07/10 07:03:22;;;;;;;;;;;24.80;95.30;;;-145.59;100.00;63944.34;5037150;28;19925;-75
2021/07/10 07:05:48;;;;;;;;;;;24.90;95.10;;;-145.59;100.00;63944.34;5037115;28;19921;-73
2021/07/10 07:08:13;;;;;;;;;;;24.90;95.20;;;-145.59;100.00;63944.34;5055262;28;19920;-74
2021/07/10 07:10:39;;;;;;;;;;;25.10;94.90;;;-145.59;100.00;63944.34;5020627;28;20374;-72
2021/07/10 07:13:05;;;;;;;;;;;25.40;94.90;;;-145.59;100.00;63944.34;5036861;28;20009;-78
2021/07/10 07:15:31;;;;;;;;;;;25.60;94.20;;;-145.59;100.00;63944.34;5036796;28;19916;-71
2021/07/10 07:17:57;;;;;;;;;;;25.70;93.70;;;-145.59;100.00;63944.34;5020208;28;19960;-72
2021/07/10 07:20:22;;;;;;;;;;;25.70;93.50;;;-145.59;100.00;63944.34;5037064;28;20329;-76
2021/07/10 07:22:49;;;;;;;;;;;25.60;93.60;;;-145.59;100.00;63944.34;5039290;28;19928;-71
2021/07/10 07:25:19;;;;;;;;;;;25.90;93.70;;;-145.59;100.00;63944.34;5023362;28;19970;-71
2021/07/10 07:27:46;;;;;;;;;;;26.80;92.70;;;-145.59;100.00;63944.34;5021949;28;19921;-70
2021/07/10 07:30:13;;;;;;;;;;;27.80;91.60;;;-145.59;100.00;63944.34;5020879;28;19937;-71
2021/07/10 07:32:39;;;;;;;;;;;28.50;90.40;;;-145.59;100.00;63944.34;5021884;28;19917;-75
2021/07/10 07:35:06;;;;;;;;;;;28.70;88.60;;;-145.59;100.00;63944.34;5020269;28;20287;-76
2021/07/10 07:37:32;;;;;;;;;;;28.70;88.20;;;-145.59;100.00;63944.34;5054603;28;20282;-75
2021/07/10 07:39:57;;;;;;;;;;;28.50;88.00;;;-145.59;100.00;63944.34;5036585;28;19975;-73
2021/07/10 07:42:23;;;;;;;;;;;28.30;88.10;;;-145.59;100.00;63944.34;5036144;28;19962;-73
2021/07/10 07:44:49;;;;;;;;;;;27.90;87.90;;;-145.59;100.00;63944.34;5035987;28;19921;-71
2021/07/10 07:47:16;;;;;;;;;;;27.50;89.30;;;-145.59;100.00;63944.34;5035923;28;19921;-71
2021/07/10 07:49:43;;;;;;;;;;;27.30;89.60;;;-145.59;100.00;63944.34;5054722;28;20065;-72
2021/07/10 07:52:09;;;;;;;;;;;26.90;90.20;;;-145.59;100.00;63944.34;5021014;28;20015;-71
2021/07/10 07:54:35;;;;;;;;;;;26.50;90.50;;;-145.59;100.00;63944.34;5037106;28;19923;-71
2021/07/10 07:57:01;;;;;;;;;;;26.10;91.00;;;-145.59;100.00;63944.34;5037360;28;20375;-72
2021/07/10 07:59:27;;;;;;;;;;;25.80;91.20;;;-145.59;100.00;63944.34;5054158;28;19925;-73
2021/07/10 08:01:53;;;;;;;;;;;25.60;91.40;;;-145.59;100.00;63944.34;5035944;28;19927;-70
2021/07/10 08:04:19;;;;;;;;;;;25.50;91.80;;;-145.59;100.00;63944.34;5018844;28;20417;-71
2021/07/10 08:06:44;;;;;;;;;;;25.20;92.00;;;-145.59;100.00;63944.34;5053864;28;19975;-72
2021/07/10 08:09:10;;;;;;;;;;;25.30;92.40;;;-145.59;100.00;63944.34;5035650;28;19920;-73
2021/07/10 08:11:36;;;;;;;;;;;26.00;92.30;;;-145.59;100.00;63944.34;5035901;28;20386;-72
2021/07/10 08:14:03;;;;;;;;;;;27.50;91.00;;;-145.59;100.00;63944.34;5019426;28;19932;-75
2021/07/10 08:16:28;;;;;;;;;;;29.20;87.40;;;-145.59;100.00;63944.34;5035903;28;19920;-76
2021/07/10 08:18:54;;;;;;;;;;;31.20;83.90;;;-145.59;100.00;63944.34;5036586;28;19921;-70
2021/07/10 08:21:21;;;;;;;;;;;32.70;79.30;;;-145.59;100.00;63944.34;5020671;28;20310;-72
2021/07/10 08:23:49;;;;;;;;;;;34.30;75.80;;;-145.59;100.00;63944.34;5021211;28;20382;-75
2021/07/10 08:26:15;;;;;;;;;;;35.80;73.00;;;-145.59;100.00;63944.34;5037020;28;19927;-70
2021/07/10 08:28:41;;;;;;;;;;;37.10;70.10;;;-145.59;100.00;63944.34;5037353;28;20276;-72
2021/07/10 08:31:07;;;;;;;;;;;38.40;66.60;;;-145.59;100.00;63944.34;5039264;28;19917;-71
2021/07/10 08:33:33;;;;;;;;;;;39.50;64.10;;;-145.59;100.00;63944.34;5022503;28;20336;-71
2021/07/10 08:35:59;;;;;;;;;;;39.60;63.80;;;-145.59;100.00;63944.34;5021463;28;19928;-70
2021/07/10 08:38:25;;;;;;;;;;;39.20;62.30;;;-145.59;100.00;63944.34;5020684;28;20290;-74
2021/07/10 08:40:52;;;;;;;;;;;38.70;61.60;;;-145.59;100.00;63944.34;5038986;28;19923;-71
2021/07/10 08:43:19;;;;;;;;;;;38.10;62.80;;;-145.59;100.00;63944.34;5024059;28;19955;-73
2021/07/10 08:45:47;;;;;;;;;;;37.40;62.80;;;-145.59;100.00;63944.34;5023909;28;19921;-73
2021/07/10 08:48:13;;;;;;;;;;;36.50;63.90;;;-145.59;100.00;63944.34;5023316;28;19917;-71
2021/07/10 08:50:39;;;;;;;;;;;35.90;65.60;;;-145.59;100.00;63944.34;5023110;28;19913;-76
2021/07/10 08:53:05;;;;;;;;;;;35.80;65.00;;;-145.59;100.00;63944.34;5039233;28;20336;-70
2021/07/10 08:55:31;;;;;;;;;;;35.80;64.50;;;-145.59;100.00;63944.34;5039198;28;19913;-71
2021/07/10 08:57:58;;;;;;;;;;;35.90;65.40;;;-145.59;100.00;63944.34;5039413;28;19925;-70
2021/07/10 09:00:28;;;;;;;;;;;36.00;64.80;;;-145.59;100.00;63944.34;5022759;28;20019;-75
2021/07/10 09:02:55;;;;;;;;;;;36.00;64.60;;;-145.59;100.00;63944.34;5023049;28;19924;-71
2021/07/10 09:05:21;;;;;;;;;;;35.50;64.60;;;-145.59;100.00;63944.34;5022373;28;19967;-72
2021/07/10 09:08:09;;;;;;;;;;;34.80;65.00;;;-145.59;100.00;63944.34;5038995;28;19925;-72
2021/07/10 09:10:35;;;;;;;;;;;34.00;66.40;;;-145.59;100.00;63944.34;5039016;28;19959;-75
2021/07/10 09:13:02;;;;;;;;;;;33.10;67.50;;;-145.59;100.00;63944.34;5022586;28;20026;-71
2021/07/10 09:15:27;;;;;;;;;;;32.50;67.90;;;-145.59;100.00;63944.34;5039150;28;19917;-75
2021/07/10 09:17:53;;;;;;;;;;;31.70;69.10;;;-145.59;100.00;63944.34;5039525;28;19921;-74
2021/07/10 09:20:24;;;;;;;;;;;31.00;70.80;;;-145.59;100.00;63944.34;5039217;28;19927;-72
2021/07/10 09:22:50;;;;;;;;;;;30.30;72.00;;;-145.59;100.00;63944.34;5042248;28;19966;-73
2021/07/10 09:25:24;;;;;;;;;;;29.90;72.90;;;-145.59;100.00;63944.34;5040701;28;20024;-74
2021/07/10 09:27:52;;;;;;;;;;;29.60;73.40;;;-145.59;100.00;63944.34;5041648;28;19917;-71
2021/07/10 09:30:31;;;;;;;;;;;29.30;74.80;;;-145.59;100.00;63944.34;5040071;28;19919;-74
2021/07/10 09:33:21;;;;;;;;;;;29.10;75.20;;;-145.59;100.00;63944.34;5023197;28;19928;-71
2021/07/10 09:35:55;;;;;;;;;;;29.10;76.10;;;-145.59;100.00;63944.34;5039930;28;19929;-72
2021/07/10 09:38:26;;;;;;;;;;;29.60;75.50;;;-145.59;100.00;63944.34;5042267;28;19913;-77
2021/07/10 09:41:11;;;;;;;;;;;30.00;74.80;;;-145.59;100.00;63944.34;5023755;28;19917;-72
2021/07/10 09:43:39;;;;;;;;;;;30.30;74.00;;;-145.59;100.00;63944.34;5038927;28;19970;-73
2021/07/10 09:46:06;;;;;;;;;;;30.80;74.00;;;-145.59;100.00;63944.34;5022381;28;19924;-72
2021/07/10 09:48:34;;;;;;;;;;;31.90;72.60;;;-145.59;100.00;63944.34;5038918;28;19917;-74
2021/07/10 09:51:17;;;;;;;;;;;33.30;69.80;;;-145.59;100.00;63944.34;5022125;28;19964;-71
2021/07/10 09:53:57;;;;;;;;;;;34.90;67.80;;;-145.59;100.00;63944.34;5038519;28;19916;-75
2021/07/10 09:56:23;;;;;;;;;;;36.60;65.10;;;-145.59;100.00;63944.34;5023604;28;19964;-74
2021/07/10 09:58:49;;;;;;;;;;;37.80;63.50;;;-145.59;100.00;63944.34;5037682;28;19925;-71
2021/07/10 10:01:36;;;;;;;;;;;38.00;63.00;;;-145.59;100.00;63944.34;5038061;28;19920;-75
2021/07/10 10:04:19;;;;;;;;;;;38.10;62.80;;;-145.59;100.00;63944.34;5039138;28;19950;-73
2021/07/10 10:06:45;;;;;;;;;;;37.80;63.00;;;-145.59;100.00;63944.34;5023316;28;19916;-70
2021/07/10 10:09:22;;;;;;;;;;;37.10;63.00;;;-145.59;100.00;63944.34;5055327;28;19987;-74
2021/07/10 10:12:13;;;;;;;;;;;36.30;63.50;;;-145.59;100.00;63944.34;5038903;28;19923;-73
2021/07/10 10:14:44;;;;;;;;;;;35.60;64.00;;;-145.59;100.00;63944.34;5030834;28;20362;-76
2021/07/10 10:17:11;;;;;;;;;;;34.90;65.10;;;-145.59;100.00;63944.34;5022150;28;19951;-80
2021/07/10 10:19:37;;;;;;;;;;;34.20;66.00;;;-145.59;100.00;63944.34;5038766;28;19921;-74
2021/07/10 10:22:06;;;;;;;;;;;33.80;66.90;;;-145.59;100.00;63944.34;5038848;28;19944;-69
2021/07/10 10:24:32;;;;;;;;;;;33.60;66.80;;;-145.59;100.00;63944.34;5038380;28;19916;-72
2021/07/10 10:26:58;;;;;;;;;;;33.90;67.20;;;-145.59;100.00;63944.34;5055880;28;19970;-71
2021/07/10 10:29:26;;;;;;;;;;;34.60;66.30;;;-145.59;100.00;63944.34;5056057;28;19947;-70
2021/07/10 10:31:52;;;;;;;;;;;35.10;65.40;;;-145.59;100.00;63944.34;5055836;28;19921;-69
2021/07/10 10:34:18;;;;;;;;;;;35.80;64.70;;;-145.59;100.00;63944.34;5020662;28;19933;-68
2021/07/10 10:36:46;;;;;;;;;;;37.10;62.50;;;-145.59;100.00;63944.34;5020996;28;19916;-67
2021/07/10 10:39:19;;;;;;;;;;;38.50;61.70;;;-145.59;100.00;63944.34;5037399;28;19917;-69
2021/07/10 10:41:47;;;;;;;;;;;39.60;59.60;;;-145.59;100.00;63944.34;5037048;28;19916;-70
2021/07/10 10:44:14;;;;;;;;;;;39.50;59.20;;;-145.59;100.00;63944.34;5020840;28;19917;-70
2021/07/10 10:46:55;;;;;;;;;;;38.50;59.20;;;-145.59;100.00;63944.34;5020713;28;19923;-69
2021/07/10 10:49:35;;;;;;;;;;;37.40;60.40;;;-145.59;100.00;63944.34;5038917;28;20268;-68
2021/07/10 10:52:22;;;;;;;;;;;36.20;61.40;;;-145.59;100.00;63944.34;5038070;28;20007;-69
2021/07/10 10:55:18;;;;;;;;;;;34.90;62.50;;;-145.59;100.00;63944.34;5055054;28;19917;-66